Terminal Aerodrome Forecast
Issued by NWS

Current Version | Previous Version | Graphics & Text | Print | Product List | Glossary On
Versions: 1 2 3 4 5 6 7 8 9 10 11 12 13 14 15 16 17 18 19 20 21 22
410
FTUS41 KPBZ 202325
TAFHLG
TAF
KHLG 202325Z 2100/2124 24006KT P6SM FEW250
     FM210300 23006KT P6SM BKN025
     FM210600 23005KT 5SM BR OVC015
     FM210900 22005KT 3SM -DZ OVC008
     FM211500 21005KT P6SM VCSH OVC010=

USA.gov is the U.S. government's official web portal to all federal, state and local government web resources and services.